createdAt,value
2022-08-22T00:00:14.175Z,97282.81
2022-08-22T00:02:59.904Z,97386.47
2022-08-22T00:03:07.176Z,97350.81
2022-08-22T00:03:48.715Z,97287.97
2022-08-22T00:07:04.434Z,97285.13
2022-08-22T00:10:25.108Z,97280.25
2022-08-22T00:13:38.029Z,97285.31
2022-08-22T00:16:51.626Z,97283.97
2022-08-22T00:20:08.876Z,97291.22
2022-08-22T00:23:20.108Z,97292.84
2022-08-22T00:26:45.123Z,97287.16
2022-08-22T00:29:56.126Z,97287.28
2022-08-22T00:33:08.621Z,97285.03
2022-08-22T00:36:20.915Z,97279.31
2022-08-22T00:39:35.190Z,97286.56
2022-08-22T00:43:03.403Z,97281.38
2022-08-22T00:46:31.380Z,97278.69
2022-08-22T00:50:00.979Z,97279.09
2022-08-22T00:53:27.647Z,97277.91
2022-08-22T00:57:00.390Z,97267.06
2022-08-22T01:00:17.438Z,97266.28
2022-08-22T01:03:40.143Z,97260.50
2022-08-22T01:06:56.863Z,97262.91
2022-08-22T01:10:24.734Z,97262.22
2022-08-22T01:13:50.627Z,97264.59
2022-08-22T01:17:34.291Z,97258.56
2022-08-22T01:21:15.738Z,97253.94
2022-08-22T01:25:17.445Z,97263.75
2022-08-22T01:29:05.728Z,97261.75
2022-08-22T01:32:57.319Z,97267.88
2022-08-22T01:36:49.261Z,97263.00
2022-08-22T01:40:33.216Z,97264.41
2022-08-22T01:44:01.570Z,97265.25
2022-08-22T01:47:13.130Z,97259.19
2022-08-22T01:50:26.699Z,97256.97
2022-08-22T01:53:41.097Z,97255.38
2022-08-22T01:56:48.601Z,97266.03
2022-08-22T01:59:55.931Z,97268.88
2022-08-22T02:03:09.810Z,97270.72
2022-08-22T02:06:18.462Z,97276.47
2022-08-22T02:09:33.960Z,97269.81
2022-08-22T02:12:52.447Z,97274.69
2022-08-22T02:16:09.776Z,97263.00
2022-08-22T02:19:29.683Z,97270.06
2022-08-22T02:22:44.990Z,97266.75
2022-08-22T02:25:54.571Z,97268.44
2022-08-22T02:32:20.490Z,97263.00
2022-08-22T02:35:32.480Z,97264.59
2022-08-22T02:38:44.451Z,97262.59
2022-08-22T02:42:02.371Z,97262.03
2022-08-22T02:45:22.064Z,97269.34
2022-08-22T02:48:40.752Z,97270.59
2022-08-22T02:51:56.334Z,97255.44
2022-08-22T02:55:05.571Z,97259.78
2022-08-22T02:58:17.731Z,97248.81
2022-08-22T03:01:38.228Z,97259.44
2022-08-22T03:04:53.155Z,97259.25
2022-08-22T03:08:03.867Z,97251.34
2022-08-22T03:11:25.842Z,97248.72
2022-08-22T03:14:37.292Z,97255.09
2022-08-22T03:17:52.001Z,97251.66
2022-08-22T03:21:16.966Z,97251.84
2022-08-22T03:24:27.467Z,97244.81
2022-08-22T03:27:37.816Z,97250.69
2022-08-22T03:30:44.839Z,97246.16
2022-08-22T03:34:31.992Z,97261.25
2022-08-22T03:37:44.252Z,97254.47
2022-08-22T03:41:12.544Z,97256.72
2022-08-22T03:44:51.122Z,97250.34
2022-08-22T03:48:43.792Z,97262.38
2022-08-22T03:52:18.303Z,97245.19
2022-08-22T03:55:35.850Z,97257.84
2022-08-22T03:59:12.869Z,97255.81
2022-08-22T04:02:44.270Z,97256.72
2022-08-22T04:06:22.012Z,97252.56
2022-08-22T04:10:12.319Z,97259.13
2022-08-22T04:14:05.780Z,97257.47
2022-08-22T04:17:46.270Z,97261.25
2022-08-22T04:21:20.686Z,97260.56
2022-08-22T04:24:43.182Z,97260.97
2022-08-22T04:27:55.929Z,97261.03
2022-08-22T04:31:11.730Z,97264.84
2022-08-22T04:34:27.218Z,97272.06
2022-08-22T04:37:40.209Z,97266.50
2022-08-22T04:40:52.097Z,97281.63
2022-08-22T04:44:03.598Z,97277.72
2022-08-22T04:47:21.929Z,97280.47
2022-08-22T04:50:36.091Z,97280.19
2022-08-22T04:54:00.175Z,97278.94
2022-08-22T04:57:22.715Z,97280.34
2022-08-22T05:00:26.417Z,97279.22
2022-08-22T05:03:43.056Z,97280.66
2022-08-22T05:06:58.124Z,97284.22
2022-08-22T05:10:10.545Z,97288.31
2022-08-22T05:13:23.185Z,97285.00
2022-08-22T05:16:33.088Z,97284.53
2022-08-22T05:22:49.969Z,97290.78
2022-08-22T05:32:13.438Z,97288.34
2022-08-22T05:35:23.299Z,97297.28
2022-08-22T05:38:33.287Z,97307.66
2022-08-22T05:41:40.838Z,97301.63
2022-08-22T05:44:53.262Z,97304.66
2022-08-22T05:48:30.517Z,97306.56
2022-08-22T05:51:50.125Z,97298.72
2022-08-22T05:55:06.862Z,97318.81
2022-08-22T05:58:31.091Z,97317.16
2022-08-22T06:01:40.206Z,97322.22
2022-08-22T06:04:52.082Z,97327.97
2022-08-22T06:08:09.934Z,97332.72
2022-08-22T06:11:19.796Z,97337.72
2022-08-22T06:14:33.995Z,97330.38
2022-08-22T06:17:44.574Z,97328.91
2022-08-22T06:20:53.716Z,97336.84
2022-08-22T06:24:01.277Z,97333.63
2022-08-22T06:27:11.330Z,97344.09
2022-08-22T06:30:17.834Z,97343.19
2022-08-22T06:33:27.223Z,97353.44
2022-08-22T06:36:32.856Z,97348.88
2022-08-22T06:39:46.028Z,97342.56
2022-08-22T06:42:55.558Z,97347.19
2022-08-22T06:51:38.374Z,97353.19
2022-08-22T06:54:51.392Z,97348.75
2022-08-22T06:58:01.703Z,97355.38
2022-08-22T07:01:12.749Z,97359.88
2022-08-22T07:04:18.716Z,97358.28
2022-08-22T07:07:27.494Z,97369.19
2022-08-22T07:10:35.899Z,97370.78
2022-08-22T07:13:44.930Z,97370.97
2022-08-22T07:16:57.008Z,97369.69
2022-08-22T07:20:07.568Z,97364.84
2022-08-22T07:23:25.199Z,97365.59
2022-08-22T07:26:39.777Z,97369.69
2022-08-22T07:29:54.647Z,97371.66
2022-08-22T07:33:25.786Z,97372.53
2022-08-22T07:36:37.379Z,97375.63
2022-08-22T07:39:53.846Z,97382.75
2022-08-22T07:43:13.913Z,97371.66
2022-08-22T07:46:30.471Z,97379.78
2022-08-22T07:49:39.554Z,97381.50
2022-08-22T07:52:56.710Z,97384.41
2022-08-22T07:56:03.807Z,97386.78
2022-08-22T07:59:14.995Z,97386.34
2022-08-22T08:02:22.820Z,97384.69
2022-08-22T08:05:32.363Z,97381.53
2022-08-22T08:08:44.337Z,97378.44
2022-08-22T08:11:50.978Z,97380.69
2022-08-22T08:14:57.073Z,97388.69
2022-08-22T08:18:07.878Z,97395.06
2022-08-22T08:24:57.569Z,97385.97
2022-08-22T08:28:21.324Z,97391.84
2022-08-22T08:31:32.315Z,97391.06
2022-08-22T08:34:40.016Z,97388.69
2022-08-22T08:37:48.948Z,97393.97
2022-08-22T08:41:20.868Z,97392.44
2022-08-22T08:44:48.792Z,97398.72
2022-08-22T08:48:22.972Z,97387.38
2022-08-22T08:52:17.665Z,97394.59
2022-08-22T08:55:32.843Z,97379.41
2022-08-22T08:58:43.876Z,97386.44
2022-08-22T09:02:13.902Z,97393.63
2022-08-22T09:05:59.676Z,97395.19
2022-08-22T09:09:14.544Z,97394.00
2022-08-22T09:12:33.778Z,97401.28
2022-08-22T09:16:04.438Z,97391.72
2022-08-22T09:19:37.582Z,97385.34
2022-08-22T09:23:10.960Z,97397.25
2022-08-22T09:26:18.907Z,97393.78
2022-08-22T09:29:54.466Z,97393.84
2022-08-22T09:33:06.238Z,97395.69
2022-08-22T09:36:21.991Z,97386.34
2022-08-22T09:39:39.155Z,97397.78
2022-08-22T09:42:56.463Z,97393.72
2022-08-22T09:46:12.914Z,97393.53
2022-08-22T09:49:27.683Z,97397.59
2022-08-22T09:52:53.602Z,97394.56
2022-08-22T09:56:15.331Z,97396.06
2022-08-22T09:59:42.925Z,97391.22
2022-08-22T10:02:58.928Z,97391.66
2022-08-22T10:06:15.721Z,97391.47
2022-08-22T10:09:31.137Z,97388.31
2022-08-22T10:12:50.417Z,97394.97
2022-08-22T10:16:02.097Z,97387.84
2022-08-22T10:19:19.314Z,97387.88
2022-08-22T10:22:41.173Z,97377.75
2022-08-22T10:25:53.109Z,97374.41
2022-08-22T10:29:12.146Z,97369.69
2022-08-22T10:32:27.621Z,97374.47
2022-08-22T10:35:36.417Z,97374.53
2022-08-22T10:38:47.828Z,97380.19
2022-08-22T10:42:13.751Z,97380.88
2022-08-22T10:45:36.517Z,97378.03
2022-08-22T10:48:52.753Z,97381.91
2022-08-22T10:52:15.323Z,97381.53
2022-08-22T10:55:28.438Z,97381.66
2022-08-22T10:58:49.132Z,97375.44
2022-08-22T11:02:09.319Z,97364.44
2022-08-22T11:05:41.891Z,97377.31
2022-08-22T11:09:17.491Z,97383.72
2022-08-22T11:12:28.208Z,97376.41
2022-08-22T11:16:04.153Z,97379.00
2022-08-22T11:19:18.999Z,97378.59
2022-08-22T11:22:44.903Z,97379.19
2022-08-22T11:26:04.116Z,97371.44
2022-08-22T11:29:34.322Z,97372.25
2022-08-22T11:32:54.895Z,97364.88
2022-08-22T11:36:30.588Z,97362.75
2022-08-22T11:39:39.602Z,97354.97
2022-08-22T11:42:51.866Z,97360.31
2022-08-22T11:46:24.826Z,97350.66
2022-08-22T11:49:46.277Z,97353.28
2022-08-22T11:53:21.545Z,97340.44
2022-08-22T11:56:41.576Z,97342.50
2022-08-22T12:00:04.549Z,97329.06
2022-08-22T12:03:27.928Z,97332.66
2022-08-22T12:06:44.278Z,97325.84
2022-08-22T12:09:55.242Z,97326.97
2022-08-22T12:13:35.157Z,97318.88
2022-08-22T12:16:52.330Z,97312.59
2022-08-22T12:20:39.078Z,97312.34
2022-08-22T12:24:20.882Z,97312.53
2022-08-22T12:31:11.307Z,97307.00
2022-08-22T12:34:23.337Z,97299.69
2022-08-22T12:37:52.190Z,97296.34
2022-08-22T12:41:34.775Z,97295.81
2022-08-22T12:45:02.446Z,97292.81
2022-08-22T12:48:26.527Z,97302.66
2022-08-22T12:51:40.904Z,97308.22
2022-08-22T12:55:00.591Z,97304.09
2022-08-22T12:58:20.188Z,97311.56
2022-08-22T13:01:34.233Z,97315.91
2022-08-22T13:04:56.036Z,97313.06
2022-08-22T13:08:13.614Z,97312.88
2022-08-22T13:11:23.741Z,97316.25
2022-08-22T13:14:36.651Z,97311.19
2022-08-22T13:17:49.699Z,97312.50
2022-08-22T13:21:03.368Z,97307.53
2022-08-22T13:24:16.905Z,97299.59
2022-08-22T13:27:31.736Z,97312.88
2022-08-22T13:30:38.419Z,97310.03
2022-08-22T13:33:47.979Z,97301.50
2022-08-22T13:37:03.019Z,97307.53
2022-08-22T13:40:11.849Z,97296.19
2022-08-22T13:43:36.594Z,97303.50
2022-08-22T13:47:13.231Z,97301.38
2022-08-22T13:50:21.073Z,97285.78
2022-08-22T13:53:38.256Z,97296.00
2022-08-22T13:56:54.450Z,97300.41
2022-08-22T14:00:10.408Z,97298.22
2022-08-22T14:03:23.401Z,97300.97
2022-08-22T14:06:41.368Z,97291.13
2022-08-22T14:09:56.953Z,97291.31
2022-08-22T14:13:36.740Z,97290.81
2022-08-22T14:16:49.241Z,97293.31
2022-08-22T14:20:02.780Z,97300.97
2022-08-22T14:23:12.364Z,97287.78
2022-08-22T14:26:37.515Z,97291.69
2022-08-22T14:29:56.472Z,97296.41
2022-08-22T14:33:23.914Z,97296.91
2022-08-22T14:36:37.392Z,97300.72
2022-08-22T14:39:47.185Z,97299.91
2022-08-22T14:42:56.660Z,97301.75
2022-08-22T14:46:04.873Z,97299.13
2022-08-22T14:49:28.866Z,97304.03
2022-08-22T14:52:41.251Z,97296.03
2022-08-22T14:55:55.593Z,97285.41
2022-08-22T14:59:05.871Z,97283.94
2022-08-22T15:02:16.854Z,97281.41
2022-08-22T15:05:23.890Z,97288.56
2022-08-22T15:08:32.578Z,97287.00
2022-08-22T15:11:42.208Z,97285.72
2022-08-22T15:14:52.403Z,97293.47
2022-08-22T15:17:57.671Z,97289.47
2022-08-22T15:21:06.907Z,97297.59
2022-08-22T15:24:17.833Z,97289.25
2022-08-22T15:27:48.725Z,97288.91
2022-08-22T15:31:05.558Z,97295.66
2022-08-22T15:34:24.271Z,97299.13
2022-08-22T15:37:32.833Z,97290.84
2022-08-22T15:40:56.297Z,97299.13
2022-08-22T15:44:07.800Z,97295.94
2022-08-22T15:47:32.886Z,97296.66
2022-08-22T15:50:43.277Z,97297.69
2022-08-22T15:54:16.321Z,97288.38
2022-08-22T15:57:37.998Z,97292.72
2022-08-22T16:00:46.501Z,97290.03
2022-08-22T16:04:09.701Z,97289.25
2022-08-22T16:07:35.815Z,97298.31
2022-08-22T16:10:47.757Z,97293.16
2022-08-22T16:14:21.915Z,97303.19
2022-08-22T16:17:53.339Z,97308.69
2022-08-22T16:21:04.696Z,97297.28
2022-08-22T16:24:29.531Z,97312.13
2022-08-22T16:27:41.092Z,97315.91
2022-08-22T16:31:00.139Z,97312.91
2022-08-22T16:34:24.084Z,97326.50
2022-08-22T16:37:49.073Z,97324.44
2022-08-22T16:40:53.041Z,97341.69
2022-08-22T16:44:33.988Z,97348.53
2022-08-22T16:48:45.615Z,97350.03
2022-08-22T16:52:22.747Z,97356.81
2022-08-22T16:56:03.506Z,97363.47
2022-08-22T16:59:38.547Z,97366.88
2022-08-22T17:03:04.238Z,97363.50
2022-08-22T17:06:28.511Z,97369.19
2022-08-22T17:10:01.580Z,97362.91
2022-08-22T17:13:26.211Z,97369.53
2022-08-22T17:16:57.765Z,97373.13
2022-08-22T17:20:19.543Z,97362.72
2022-08-22T17:23:39.039Z,97360.94
2022-08-22T17:26:57.099Z,97371.94
2022-08-22T17:30:11.384Z,97380.84
2022-08-22T17:33:28.567Z,97383.88
2022-08-22T17:37:49.544Z,97390.44
2022-08-22T17:42:08.141Z,97384.88
2022-08-22T17:45:27.584Z,97381.91
2022-08-22T17:48:40.526Z,97382.41
2022-08-22T17:51:50.877Z,97390.59
2022-08-22T17:55:00.289Z,97394.38
2022-08-22T17:58:11.957Z,97391.91
2022-08-22T18:01:48.449Z,97393.31
2022-08-22T18:05:04.106Z,97398.25
2022-08-22T18:08:37.568Z,97398.69
2022-08-22T18:11:44.878Z,97385.00
2022-08-22T18:14:55.126Z,97390.06
2022-08-22T18:18:04.910Z,97400.81
2022-08-22T18:21:18.634Z,97404.97
2022-08-22T18:24:33.136Z,97403.75
2022-08-22T18:27:50.776Z,97392.44
2022-08-22T18:31:47.525Z,97393.22
2022-08-22T18:35:25.511Z,97405.19
2022-08-22T18:38:51.166Z,97415.84
2022-08-22T18:42:04.128Z,97422.38
2022-08-22T18:45:16.763Z,97431.78
2022-08-22T18:48:25.295Z,97430.53
2022-08-22T18:51:43.749Z,97429.44
2022-08-22T18:55:16.521Z,97437.63
2022-08-22T18:58:51.361Z,97432.38
2022-08-22T19:02:55.712Z,97449.06
2022-08-22T19:06:26.709Z,97439.63
2022-08-22T19:13:56.458Z,97438.75
2022-08-22T19:17:39.564Z,97439.13
2022-08-22T19:21:03.288Z,97441.75
2022-08-22T19:24:10.983Z,97437.66
2022-08-22T19:27:31.320Z,97446.38
2022-08-22T19:30:48.495Z,97451.53
2022-08-22T19:34:17.492Z,97448.28
2022-08-22T19:37:33.641Z,97450.38
2022-08-22T19:40:54.631Z,97450.28
2022-08-22T19:43:58.893Z,97447.50
2022-08-22T19:47:11.400Z,97453.16
2022-08-22T19:50:31.032Z,97450.53
2022-08-22T19:53:42.092Z,97456.94
2022-08-22T19:57:04.712Z,97459.19
2022-08-22T20:00:17.549Z,97455.88
2022-08-22T20:03:37.915Z,97448.97
2022-08-22T20:06:53.512Z,97458.88
2022-08-22T20:10:10.406Z,97460.13
2022-08-22T20:13:24.252Z,97456.97
2022-08-22T20:17:02.287Z,97450.00
2022-08-22T20:20:18.192Z,97458.81
2022-08-22T20:23:28.525Z,97472.59
2022-08-22T20:26:33.700Z,97461.84
2022-08-22T20:29:49.279Z,97461.84
2022-08-22T20:32:58.339Z,97466.28
2022-08-22T20:36:16.634Z,97466.69
2022-08-22T20:40:00.820Z,97466.66
2022-08-22T20:43:56.780Z,97473.06
2022-08-22T20:47:06.079Z,97475.94
2022-08-22T20:50:13.546Z,97481.25
2022-08-22T20:53:22.019Z,97478.97
2022-08-22T20:56:46.063Z,97481.50
2022-08-22T21:00:08.451Z,97472.47
2022-08-22T21:03:21.017Z,97464.22
2022-08-22T21:06:32.816Z,97467.91
2022-08-22T21:09:55.080Z,97471.88
2022-08-22T21:13:08.553Z,97467.06
2022-08-22T21:16:16.380Z,97464.19
2022-08-22T21:19:26.002Z,97459.00
2022-08-22T21:22:32.345Z,97465.44
2022-08-22T21:25:54.514Z,97457.50
2022-08-22T21:29:07.509Z,97454.84
2022-08-22T21:32:25.478Z,97465.00
2022-08-22T21:35:33.311Z,97457.69
2022-08-22T21:38:41.491Z,97462.59
2022-08-22T21:41:55.361Z,97451.66
2022-08-22T21:45:03.793Z,97452.81
2022-08-22T21:48:32.951Z,97456.63
2022-08-22T21:51:43.683Z,97459.66
2022-08-22T21:54:47.568Z,97463.97
2022-08-22T21:58:08.755Z,97460.03
2022-08-22T22:01:30.694Z,97448.47
2022-08-22T22:04:42.751Z,97455.13
2022-08-22T22:07:51.997Z,97455.47
2022-08-22T22:11:01.811Z,97460.88
2022-08-22T22:14:12.096Z,97452.75
2022-08-22T22:17:20.364Z,97452.44
2022-08-22T22:20:28.032Z,97449.28
2022-08-22T22:23:33.660Z,97448.75
2022-08-22T22:26:41.173Z,97445.00
2022-08-22T22:29:48.715Z,97448.63
2022-08-22T22:32:52.513Z,97447.91
2022-08-22T22:36:04.527Z,97451.16
2022-08-22T22:39:10.693Z,97445.47
2022-08-22T22:42:15.074Z,97453.13
2022-08-22T22:45:20.866Z,97451.31
2022-08-22T22:48:26.574Z,97458.91
2022-08-22T22:51:33.522Z,97451.38
2022-08-22T22:54:39.855Z,97453.22
2022-08-22T22:57:47.867Z,97458.09
2022-08-22T23:01:01.857Z,97462.00
2022-08-22T23:04:06.113Z,97460.09
2022-08-22T23:07:11.372Z,97451.53
2022-08-22T23:10:18.759Z,97462.41
2022-08-22T23:13:28.197Z,97458.13
2022-08-22T23:16:37.258Z,97452.19
2022-08-22T23:19:43.289Z,97460.97
2022-08-22T23:22:51.831Z,97454.03
2022-08-22T23:25:58.334Z,97449.41
2022-08-22T23:29:02.158Z,97449.91
2022-08-22T23:32:10.850Z,97451.16
2022-08-22T23:35:16.684Z,97447.84
2022-08-22T23:38:22.455Z,97453.69
2022-08-22T23:41:28.730Z,97445.03
2022-08-22T23:44:36.625Z,97439.13
2022-08-22T23:47:43.844Z,97437.72
2022-08-22T23:50:47.959Z,97435.16
2022-08-22T23:53:53.353Z,97439.72
2022-08-22T23:57:01.574Z,97434.78
